Archival Weather

Eureka

Eureka, Canada (CWEU)

Report from: Wednesday, January 25, 2023 7:00 PM CST
Current time: Sunday, April 14, 2024 5:01 AM CDT

Current weather – Weather history – Daily summaries
Weather forecast

Present weatherIce crystals
Temperature-38.0°C (-36.4°F)
Wind chill-49.3°C (-56.8°F)
Dew point-42.0°C (-43.6°F)
Winds 6 kts (3.1 m/s, 6.9 mph) Vrb
Winds variableWinds variable from West-Southwest (250°) to Northeast (40°)
Visibility6 mi. (9.7 km)
Clouds Few clouds 23,000 ft. (7,010 m)
Altimeter29.77 in.Hg (1008 mB)
Relative humidity66 %
Density altitude-6,988 ft. (-2,130 m)
Sea-level pressure101.0 kPa (1010 mB, 29.83 in.Hg)
Flight conditions Visual Meteorological Conditions
Raw dataCWEU 260100Z 36006KT 250V040 6SM IC FEW230 M38/M42 A2977 RMK CI1 IC HVY SLP103
An error has occurred. This application may no longer respond until reloaded. Reload 🗙